sensor_id;sensor_type;location;lat;lon;timestamp;temperature;humidity
3866;DHT22;1948;53.250;10.412;2022-10-31T00:01:33;13.10;99.90
3866;DHT22;1948;53.250;10.412;2022-10-31T00:04:03;13.10;99.90
3866;DHT22;1948;53.250;10.412;2022-10-31T00:06:33;13.10;99.90
3866;DHT22;1948;53.250;10.412;2022-10-31T00:09:02;12.90;99.90
3866;DHT22;1948;53.250;10.412;2022-10-31T00:11:33;12.90;99.90
3866;DHT22;1948;53.250;10.412;2022-10-31T00:14:00;12.90;99.90
3866;DHT22;1948;53.250;10.412;2022-10-31T00:16:29;12.90;99.90
3866;DHT22;1948;53.250;10.412;2022-10-31T00:18:58;12.80;99.90
3866;DHT22;1948;53.250;10.412;2022-10-31T00:21:27;12.80;99.90
3866;DHT22;1948;53.250;10.412;2022-10-31T00:23:58;12.80;99.90
3866;DHT22;1948;53.250;10.412;2022-10-31T00:26:30;12.80;99.90
3866;DHT22;1948;53.250;10.412;2022-10-31T00:29:00;12.80;99.90
3866;DHT22;1948;53.250;10.412;2022-10-31T00:31:30;12.80;99.90
3866;DHT22;1948;53.250;10.412;2022-10-31T00:33:57;12.80;99.90
3866;DHT22;1948;53.250;10.412;2022-10-31T00:36:24;12.80;99.90
3866;DHT22;1948;53.250;10.412;2022-10-31T00:38:54;12.80;99.90
3866;DHT22;1948;53.250;10.412;2022-10-31T00:41:24;12.90;99.90
3866;DHT22;1948;53.250;10.412;2022-10-31T00:43:51;12.90;99.90
3866;DHT22;1948;53.250;10.412;2022-10-31T00:46:18;12.90;99.90
3866;DHT22;1948;53.250;10.412;2022-10-31T00:48:45;12.90;99.90
3866;DHT22;1948;53.250;10.412;2022-10-31T00:51:12;13.00;99.90
3866;DHT22;1948;53.250;10.412;2022-10-31T00:53:41;12.90;99.90
3866;DHT22;1948;53.250;10.412;2022-10-31T00:56:11;12.90;99.90
3866;DHT22;1948;53.250;10.412;2022-10-31T00:58:39;12.80;99.90
3866;DHT22;1948;53.250;10.412;2022-10-31T01:01:06;12.90;99.90
3866;DHT22;1948;53.250;10.412;2022-10-31T01:03:36;12.90;99.90
3866;DHT22;1948;53.250;10.412;2022-10-31T01:06:10;12.90;99.90
3866;DHT22;1948;53.250;10.412;2022-10-31T01:08:38;12.90;99.90
3866;DHT22;1948;53.250;10.412;2022-10-31T01:11:18;12.90;99.90
3866;DHT22;1948;53.250;10.412;2022-10-31T01:13:46;12.90;99.90
3866;DHT22;1948;53.250;10.412;2022-10-31T01:16:18;12.80;99.90
3866;DHT22;1948;53.250;10.412;2022-10-31T01:18:51;12.80;99.90
3866;DHT22;1948;53.250;10.412;2022-10-31T01:21:24;12.80;99.90
3866;DHT22;1948;53.250;10.412;2022-10-31T01:23:56;12.80;99.90
3866;DHT22;1948;53.250;10.412;2022-10-31T01:26:25;12.70;99.90
3866;DHT22;1948;53.250;10.412;2022-10-31T01:31:27;12.70;99.90
3866;DHT22;1948;53.250;10.412;2022-10-31T01:33:58;12.70;99.90
3866;DHT22;1948;53.250;10.412;2022-10-31T01:36:27;12.70;99.90
3866;DHT22;1948;53.250;10.412;2022-10-31T01:39:03;12.70;99.90
3866;DHT22;1948;53.250;10.412;2022-10-31T01:41:39;12.60;99.90
3866;DHT22;1948;53.250;10.412;2022-10-31T01:55:04;12.50;99.90
3866;DHT22;1948;53.250;10.412;2022-10-31T01:57:37;12.40;99.90
3866;DHT22;1948;53.250;10.412;2022-10-31T02:00:08;12.50;99.90
3866;DHT22;1948;53.250;10.412;2022-10-31T02:02:36;12.50;99.90
3866;DHT22;1948;53.250;10.412;2022-10-31T02:05:08;12.50;99.90
3866;DHT22;1948;53.250;10.412;2022-10-31T02:07:57;12.60;99.90
3866;DHT22;1948;53.250;10.412;2022-10-31T02:10:27;12.50;99.90
3866;DHT22;1948;53.250;10.412;2022-10-31T02:12:58;12.60;99.90
3866;DHT22;1948;53.250;10.412;2022-10-31T02:15:28;12.60;99.90
3866;DHT22;1948;53.250;10.412;2022-10-31T02:17:56;12.60;99.90
3866;DHT22;1948;53.250;10.412;2022-10-31T02:20:27;12.60;99.90
3866;DHT22;1948;53.250;10.412;2022-10-31T02:23:31;12.60;99.90
3866;DHT22;1948;53.250;10.412;2022-10-31T02:30:00;12.60;99.90
3866;DHT22;1948;53.250;10.412;2022-10-31T02:38:36;12.60;99.90
3866;DHT22;1948;53.250;10.412;2022-10-31T02:46:53;12.70;99.90
3866;DHT22;1948;53.250;10.412;2022-10-31T02:49:48;12.80;99.90
3866;DHT22;1948;53.250;10.412;2022-10-31T02:52:31;12.90;99.90
3866;DHT22;1948;53.250;10.412;2022-10-31T02:57:50;13.00;99.90
3866;DHT22;1948;53.250;10.412;2022-10-31T03:00:19;13.10;99.90
3866;DHT22;1948;53.250;10.412;2022-10-31T03:11:05;13.20;99.90
3866;DHT22;1948;53.250;10.412;2022-10-31T03:16:19;13.20;99.90
3866;DHT22;1948;53.250;10.412;2022-10-31T03:19:11;13.10;99.90
3866;DHT22;1948;53.250;10.412;2022-10-31T03:22:00;13.10;99.90
3866;DHT22;1948;53.250;10.412;2022-10-31T03:24:38;13.10;99.90
3866;DHT22;1948;53.250;10.412;2022-10-31T03:27:14;13.20;99.90
3866;DHT22;1948;53.250;10.412;2022-10-31T03:29:46;13.20;99.90
3866;DHT22;1948;53.250;10.412;2022-10-31T03:32:18;13.30;99.90
3866;DHT22;1948;53.250;10.412;2022-10-31T03:34:49;13.30;99.90
3866;DHT22;1948;53.250;10.412;2022-10-31T03:37:20;13.30;99.90
3866;DHT22;1948;53.250;10.412;2022-10-31T03:39:52;13.30;99.90
3866;DHT22;1948;53.250;10.412;2022-10-31T03:42:24;13.40;99.90
3866;DHT22;1948;53.250;10.412;2022-10-31T03:45:07;13.50;99.90
3866;DHT22;1948;53.250;10.412;2022-10-31T03:47:41;13.60;99.90
3866;DHT22;1948;53.250;10.412;2022-10-31T03:50:10;13.60;99.90
3866;DHT22;1948;53.250;10.412;2022-10-31T03:52:57;13.70;99.90
3866;DHT22;1948;53.250;10.412;2022-10-31T03:55:41;13.80;99.90
3866;DHT22;1948;53.250;10.412;2022-10-31T03:58:36;13.80;99.90
3866;DHT22;1948;53.250;10.412;2022-10-31T04:01:12;13.80;99.90
3866;DHT22;1948;53.250;10.412;2022-10-31T04:03:43;13.90;99.90
3866;DHT22;1948;53.250;10.412;2022-10-31T04:06:15;13.90;99.90
3866;DHT22;1948;53.250;10.412;2022-10-31T04:08:53;13.90;99.90
3866;DHT22;1948;53.250;10.412;2022-10-31T04:11:27;13.90;99.90
3866;DHT22;1948;53.250;10.412;2022-10-31T04:13:57;13.90;99.90
3866;DHT22;1948;53.250;10.412;2022-10-31T04:16:26;13.90;99.90
3866;DHT22;1948;53.250;10.412;2022-10-31T04:18:54;13.90;99.90
3866;DHT22;1948;53.250;10.412;2022-10-31T04:21:27;14.00;99.90
3866;DHT22;1948;53.250;10.412;2022-10-31T04:23:58;14.00;99.90
3866;DHT22;1948;53.250;10.412;2022-10-31T04:26:25;14.00;99.90
3866;DHT22;1948;53.250;10.412;2022-10-31T04:28:55;14.00;99.90
3866;DHT22;1948;53.250;10.412;2022-10-31T04:31:24;14.00;99.90
3866;DHT22;1948;53.250;10.412;2022-10-31T04:33:51;14.00;99.90
3866;DHT22;1948;53.250;10.412;2022-10-31T04:36:17;14.00;99.90
3866;DHT22;1948;53.250;10.412;2022-10-31T04:38:47;14.00;99.90
3866;DHT22;1948;53.250;10.412;2022-10-31T04:41:17;14.00;99.90
3866;DHT22;1948;53.250;10.412;2022-10-31T04:43:44;14.00;99.90
3866;DHT22;1948;53.250;10.412;2022-10-31T04:46:11;14.00;99.90
3866;DHT22;1948;53.250;10.412;2022-10-31T04:48:40;14.00;99.90
3866;DHT22;1948;53.250;10.412;2022-10-31T04:51:07;14.00;99.90
3866;DHT22;1948;53.250;10.412;2022-10-31T04:53:37;14.00;99.90
3866;DHT22;1948;53.250;10.412;2022-10-31T04:56:06;14.00;99.90
3866;DHT22;1948;53.250;10.412;2022-10-31T04:58:33;14.00;99.90
3866;DHT22;1948;53.250;10.412;2022-10-31T05:01:00;14.00;99.90
3866;DHT22;1948;53.250;10.412;2022-10-31T05:03:27;14.00;99.90
3866;DHT22;1948;53.250;10.412;2022-10-31T05:05:59;14.00;99.90
3866;DHT22;1948;53.250;10.412;2022-10-31T05:08:28;14.00;99.90
3866;DHT22;1948;53.250;10.412;2022-10-31T05:10:54;14.00;99.90
3866;DHT22;1948;53.250;10.412;2022-10-31T05:13:27;14.00;99.90
3866;DHT22;1948;53.250;10.412;2022-10-31T05:15:54;14.00;99.90
3866;DHT22;1948;53.250;10.412;2022-10-31T05:18:21;14.00;99.90
3866;DHT22;1948;53.250;10.412;2022-10-31T05:20:48;14.00;99.90
3866;DHT22;1948;53.250;10.412;2022-10-31T05:23:15;14.00;99.90
3866;DHT22;1948;53.250;10.412;2022-10-31T05:25:42;13.90;99.90
3866;DHT22;1948;53.250;10.412;2022-10-31T05:28:09;14.00;99.90
3866;DHT22;1948;53.250;10.412;2022-10-31T05:30:39;14.00;99.90
3866;DHT22;1948;53.250;10.412;2022-10-31T05:33:06;14.00;99.90
3866;DHT22;1948;53.250;10.412;2022-10-31T05:35:33;14.10;99.90
3866;DHT22;1948;53.250;10.412;2022-10-31T05:38:02;14.10;99.90
3866;DHT22;1948;53.250;10.412;2022-10-31T05:40:29;14.20;99.90
3866;DHT22;1948;53.250;10.412;2022-10-31T05:42:59;14.20;99.90
3866;DHT22;1948;53.250;10.412;2022-10-31T05:45:26;14.20;99.90
3866;DHT22;1948;53.250;10.412;2022-10-31T05:47:58;14.20;99.90
3866;DHT22;1948;53.250;10.412;2022-10-31T05:50:30;14.20;99.90
3866;DHT22;1948;53.250;10.412;2022-10-31T05:53:02;14.30;99.90
3866;DHT22;1948;53.250;10.412;2022-10-31T05:55:31;14.30;99.90
3866;DHT22;1948;53.250;10.412;2022-10-31T05:57:58;14.30;99.90
3866;DHT22;1948;53.250;10.412;2022-10-31T06:00:26;14.30;99.90
3866;DHT22;1948;53.250;10.412;2022-10-31T06:03:00;14.30;99.90
3866;DHT22;1948;53.250;10.412;2022-10-31T06:05:31;14.30;99.90
3866;DHT22;1948;53.250;10.412;2022-10-31T06:07:58;14.40;99.90
3866;DHT22;1948;53.250;10.412;2022-10-31T06:10:26;14.40;99.90
3866;DHT22;1948;53.250;10.412;2022-10-31T06:12:53;14.40;99.90
3866;DHT22;1948;53.250;10.412;2022-10-31T06:15:20;14.40;99.90
3866;DHT22;1948;53.250;10.412;2022-10-31T06:18:03;14.50;99.90
3866;DHT22;1948;53.250;10.412;2022-10-31T06:20:34;14.50;99.90
3866;DHT22;1948;53.250;10.412;2022-10-31T06:23:01;14.50;99.90
3866;DHT22;1948;53.250;10.412;2022-10-31T06:25:31;14.50;99.90
3866;DHT22;1948;53.250;10.412;2022-10-31T06:27:59;14.60;99.90
3866;DHT22;1948;53.250;10.412;2022-10-31T06:30:29;14.50;99.90
3866;DHT22;1948;53.250;10.412;2022-10-31T06:33:02;14.60;99.90
3866;DHT22;1948;53.250;10.412;2022-10-31T06:35:32;14.60;99.90
3866;DHT22;1948;53.250;10.412;2022-10-31T06:38:00;14.60;99.90
3866;DHT22;1948;53.250;10.412;2022-10-31T06:40:27;14.60;99.90
3866;DHT22;1948;53.250;10.412;2022-10-31T06:43:01;14.70;99.90
3866;DHT22;1948;53.250;10.412;2022-10-31T06:45:28;14.70;99.90
3866;DHT22;1948;53.250;10.412;2022-10-31T06:47:56;14.80;99.90
3866;DHT22;1948;53.250;10.412;2022-10-31T06:50:42;14.80;99.90
3866;DHT22;1948;53.250;10.412;2022-10-31T06:53:09;14.80;99.90
3866;DHT22;1948;53.250;10.412;2022-10-31T06:55:41;14.80;99.90
3866;DHT22;1948;53.250;10.412;2022-10-31T06:58:09;14.80;99.90
3866;DHT22;1948;53.250;10.412;2022-10-31T07:00:39;14.90;99.90
3866;DHT22;1948;53.250;10.412;2022-10-31T07:03:11;14.90;99.90
3866;DHT22;1948;53.250;10.412;2022-10-31T07:05:39;14.90;99.90
3866;DHT22;1948;53.250;10.412;2022-10-31T07:08:11;14.90;99.90
3866;DHT22;1948;53.250;10.412;2022-10-31T07:10:40;14.90;99.90
3866;DHT22;1948;53.250;10.412;2022-10-31T07:13:12;15.00;99.90
3866;DHT22;1948;53.250;10.412;2022-10-31T07:15:41;15.10;99.90
3866;DHT22;1948;53.250;10.412;2022-10-31T07:18:12;15.10;99.90
3866;DHT22;1948;53.250;10.412;2022-10-31T07:20:39;15.10;99.90
3866;DHT22;1948;53.250;10.412;2022-10-31T07:23:08;15.10;99.90
3866;DHT22;1948;53.250;10.412;2022-10-31T07:25:39;15.20;99.90
3866;DHT22;1948;53.250;10.412;2022-10-31T07:28:07;15.20;99.90
3866;DHT22;1948;53.250;10.412;2022-10-31T07:30:37;15.30;99.90
3866;DHT22;1948;53.250;10.412;2022-10-31T07:33:06;15.30;99.90
3866;DHT22;1948;53.250;10.412;2022-10-31T07:35:36;15.40;99.90
3866;DHT22;1948;53.250;10.412;2022-10-31T07:38:11;15.40;99.90
3866;DHT22;1948;53.250;10.412;2022-10-31T07:40:39;15.40;99.90
3866;DHT22;1948;53.250;10.412;2022-10-31T07:43:06;15.40;99.90
3866;DHT22;1948;53.250;10.412;2022-10-31T07:45:39;15.50;99.90
3866;DHT22;1948;53.250;10.412;2022-10-31T07:48:09;15.60;99.90
3866;DHT22;1948;53.250;10.412;2022-10-31T07:50:38;15.60;99.90
3866;DHT22;1948;53.250;10.412;2022-10-31T07:53:12;15.60;99.90
3866;DHT22;1948;53.250;10.412;2022-10-31T07:55:40;15.60;99.90
3866;DHT22;1948;53.250;10.412;2022-10-31T07:58:10;15.60;99.90
3866;DHT22;1948;53.250;10.412;2022-10-31T08:00:40;15.60;99.90
3866;DHT22;1948;53.250;10.412;2022-10-31T08:03:13;15.70;99.90
3866;DHT22;1948;53.250;10.412;2022-10-31T08:05:42;15.70;99.90
3866;DHT22;1948;53.250;10.412;2022-10-31T08:08:13;15.80;99.90
3866;DHT22;1948;53.250;10.412;2022-10-31T08:10:44;15.90;99.90
3866;DHT22;1948;53.250;10.412;2022-10-31T08:13:14;15.90;99.90
3866;DHT22;1948;53.250;10.412;2022-10-31T08:15:44;15.90;99.90
3866;DHT22;1948;53.250;10.412;2022-10-31T08:18:17;16.00;99.90
3866;DHT22;1948;53.250;10.412;2022-10-31T08:20:47;16.00;99.90
3866;DHT22;1948;53.250;10.412;2022-10-31T08:23:16;16.00;99.90
3866;DHT22;1948;53.250;10.412;2022-10-31T08:25:43;16.00;99.90
3866;DHT22;1948;53.250;10.412;2022-10-31T08:28:14;16.10;99.90
3866;DHT22;1948;53.250;10.412;2022-10-31T08:30:41;16.10;99.90
3866;DHT22;1948;53.250;10.412;2022-10-31T08:33:15;16.20;99.90
3866;DHT22;1948;53.250;10.412;2022-10-31T08:35:45;16.20;99.90
3866;DHT22;1948;53.250;10.412;2022-10-31T08:38:14;16.30;99.90
3866;DHT22;1948;53.250;10.412;2022-10-31T08:40:47;16.30;99.90
3866;DHT22;1948;53.250;10.412;2022-10-31T08:43:17;16.30;99.90
3866;DHT22;1948;53.250;10.412;2022-10-31T08:45:48;16.30;99.90
3866;DHT22;1948;53.250;10.412;2022-10-31T08:48:18;16.30;99.90
3866;DHT22;1948;53.250;10.412;2022-10-31T08:50:47;16.30;99.90
3866;DHT22;1948;53.250;10.412;2022-10-31T08:53:17;16.20;99.90
3866;DHT22;1948;53.250;10.412;2022-10-31T08:55:47;16.30;99.90
3866;DHT22;1948;53.250;10.412;2022-10-31T08:58:20;16.50;99.90
3866;DHT22;1948;53.250;10.412;2022-10-31T09:00:49;16.50;99.90
3866;DHT22;1948;53.250;10.412;2022-10-31T09:03:25;16.50;99.90
3866;DHT22;1948;53.250;10.412;2022-10-31T09:05:58;16.50;99.90
3866;DHT22;1948;53.250;10.412;2022-10-31T09:08:30;16.40;99.90
3866;DHT22;1948;53.250;10.412;2022-10-31T09:10:58;16.50;99.90
3866;DHT22;1948;53.250;10.412;2022-10-31T09:13:27;16.50;99.90
3866;DHT22;1948;53.250;10.412;2022-10-31T09:15:57;16.60;99.90
3866;DHT22;1948;53.250;10.412;2022-10-31T09:18:27;16.60;99.90
3866;DHT22;1948;53.250;10.412;2022-10-31T09:20:59;16.50;99.90
3866;DHT22;1948;53.250;10.412;2022-10-31T09:23:29;16.40;99.90
3866;DHT22;1948;53.250;10.412;2022-10-31T09:26:00;16.60;99.90
3866;DHT22;1948;53.250;10.412;2022-10-31T09:28:32;16.70;99.90
3866;DHT22;1948;53.250;10.412;2022-10-31T09:31:02;16.70;99.90
3866;DHT22;1948;53.250;10.412;2022-10-31T09:33:29;16.70;99.90
3866;DHT22;1948;53.250;10.412;2022-10-31T09:35:58;16.80;99.90
3866;DHT22;1948;53.250;10.412;2022-10-31T09:38:25;16.90;99.90
3866;DHT22;1948;53.250;10.412;2022-10-31T09:41:33;16.90;99.90
3866;DHT22;1948;53.250;10.412;2022-10-31T09:44:29;17.00;99.90
3866;DHT22;1948;53.250;10.412;2022-10-31T09:49:52;17.00;99.90
3866;DHT22;1948;53.250;10.412;2022-10-31T09:52:37;16.90;99.90
3866;DHT22;1948;53.250;10.412;2022-10-31T09:55:35;16.80;99.90
3866;DHT22;1948;53.250;10.412;2022-10-31T09:58:08;16.70;99.90
3866;DHT22;1948;53.250;10.412;2022-10-31T10:00:37;16.70;99.90
3866;DHT22;1948;53.250;10.412;2022-10-31T10:08:48;17.30;99.90
3866;DHT22;1948;53.250;10.412;2022-10-31T10:17:34;17.20;99.90
3866;DHT22;1948;53.250;10.412;2022-10-31T10:23:36;17.00;99.90
3866;DHT22;1948;53.250;10.412;2022-10-31T10:26:41;17.00;99.90
3866;DHT22;1948;53.250;10.412;2022-10-31T10:32:10;17.40;99.90
3866;DHT22;1948;53.250;10.412;2022-10-31T10:34:50;17.40;99.90
3866;DHT22;1948;53.250;10.412;2022-10-31T10:37:29;17.30;99.90
3866;DHT22;1948;53.250;10.412;2022-10-31T10:40:27;17.30;99.90
3866;DHT22;1948;53.250;10.412;2022-10-31T10:43:15;17.40;99.90
3866;DHT22;1948;53.250;10.412;2022-10-31T10:46:24;17.50;99.90
3866;DHT22;1948;53.250;10.412;2022-10-31T10:49:50;17.80;99.90
3866;DHT22;1948;53.250;10.412;2022-10-31T10:52:35;18.40;99.90
3866;DHT22;1948;53.250;10.412;2022-10-31T10:55:35;19.30;99.90
3866;DHT22;1948;53.250;10.412;2022-10-31T10:58:08;19.70;99.90
3866;DHT22;1948;53.250;10.412;2022-10-31T11:00:41;19.80;99.90
3866;DHT22;1948;53.250;10.412;2022-10-31T11:03:18;19.70;99.90
3866;DHT22;1948;53.250;10.412;2022-10-31T11:05:57;19.60;99.90
3866;DHT22;1948;53.250;10.412;2022-10-31T11:08:35;19.30;99.90
3866;DHT22;1948;53.250;10.412;2022-10-31T11:14:05;18.80;99.90
3866;DHT22;1948;53.250;10.412;2022-10-31T11:16:40;18.60;99.90
3866;DHT22;1948;53.250;10.412;2022-10-31T11:21:41;18.50;99.90
3866;DHT22;1948;53.250;10.412;2022-10-31T11:24:21;18.40;99.90
3866;DHT22;1948;53.250;10.412;2022-10-31T11:27:13;18.20;99.90
3866;DHT22;1948;53.250;10.412;2022-10-31T11:29:44;18.20;99.90
3866;DHT22;1948;53.250;10.412;2022-10-31T11:32:30;18.10;99.90
3866;DHT22;1948;53.250;10.412;2022-10-31T11:35:08;18.10;99.90
3866;DHT22;1948;53.250;10.412;2022-10-31T11:37:44;18.20;99.90
3866;DHT22;1948;53.250;10.412;2022-10-31T11:40:21;18.50;99.90
3866;DHT22;1948;53.250;10.412;2022-10-31T11:42:54;18.60;99.90
3866;DHT22;1948;53.250;10.412;2022-10-31T11:47:51;18.90;99.90
3866;DHT22;1948;53.250;10.412;2022-10-31T11:50:36;18.90;99.90
3866;DHT22;1948;53.250;10.412;2022-10-31T11:53:16;19.10;99.90
3866;DHT22;1948;53.250;10.412;2022-10-31T11:55:48;19.30;99.90
3866;DHT22;1948;53.250;10.412;2022-10-31T11:59:04;19.60;99.90
3866;DHT22;1948;53.250;10.412;2022-10-31T12:01:33;20.00;99.90
3866;DHT22;1948;53.250;10.412;2022-10-31T12:04:12;20.00;99.90
3866;DHT22;1948;53.250;10.412;2022-10-31T12:06:41;20.10;99.90
3866;DHT22;1948;53.250;10.412;2022-10-31T12:09:24;20.20;99.90
3866;DHT22;1948;53.250;10.412;2022-10-31T12:12:01;20.20;99.90
3866;DHT22;1948;53.250;10.412;2022-10-31T12:26:22;21.70;99.90
3866;DHT22;1948;53.250;10.412;2022-10-31T12:32:03;24.10;99.90
3866;DHT22;1948;53.250;10.412;2022-10-31T12:43:16;24.10;99.90
3866;DHT22;1948;53.250;10.412;2022-10-31T12:45:57;24.20;99.90
3866;DHT22;1948;53.250;10.412;2022-10-31T12:48:37;24.90;99.90
3866;DHT22;1948;53.250;10.412;2022-10-31T12:59:57;26.90;99.90
3866;DHT22;1948;53.250;10.412;2022-10-31T13:03:10;26.70;99.90
3866;DHT22;1948;53.250;10.412;2022-10-31T13:05:51;27.10;99.90
3866;DHT22;1948;53.250;10.412;2022-10-31T13:08:36;27.40;99.90
3866;DHT22;1948;53.250;10.412;2022-10-31T13:11:15;26.30;99.90
3866;DHT22;1948;53.250;10.412;2022-10-31T13:16:26;25.70;99.90
3866;DHT22;1948;53.250;10.412;2022-10-31T13:19:23;25.50;99.90
3866;DHT22;1948;53.250;10.412;2022-10-31T13:22:18;25.40;99.90
3866;DHT22;1948;53.250;10.412;2022-10-31T13:30:21;26.10;99.90
3866;DHT22;1948;53.250;10.412;2022-10-31T13:33:17;25.80;99.90
3866;DHT22;1948;53.250;10.412;2022-10-31T13:39:04;24.70;99.90
3866;DHT22;1948;53.250;10.412;2022-10-31T13:41:51;23.80;99.90
3866;DHT22;1948;53.250;10.412;2022-10-31T13:44:29;23.80;99.90
3866;DHT22;1948;53.250;10.412;2022-10-31T13:47:18;23.80;99.90
3866;DHT22;1948;53.250;10.412;2022-10-31T13:50:19;23.80;99.90
3866;DHT22;1948;53.250;10.412;2022-10-31T13:52:48;23.60;99.90
3866;DHT22;1948;53.250;10.412;2022-10-31T13:55:42;23.10;99.90
3866;DHT22;1948;53.250;10.412;2022-10-31T13:58:26;22.40;99.90
3866;DHT22;1948;53.250;10.412;2022-10-31T14:01:14;21.80;99.90
3866;DHT22;1948;53.250;10.412;2022-10-31T14:04:24;21.40;99.90
3866;DHT22;1948;53.250;10.412;2022-10-31T14:07:13;21.30;99.90
3866;DHT22;1948;53.250;10.412;2022-10-31T14:12:27;21.10;99.90
3866;DHT22;1948;53.250;10.412;2022-10-31T14:15:00;21.10;99.90
3866;DHT22;1948;53.250;10.412;2022-10-31T14:20:41;21.10;99.90
3866;DHT22;1948;53.250;10.412;2022-10-31T14:29:00;21.20;99.90
3866;DHT22;1948;53.250;10.412;2022-10-31T14:34:25;20.80;99.90
3866;DHT22;1948;53.250;10.412;2022-10-31T14:40:24;20.40;99.90
3866;DHT22;1948;53.250;10.412;2022-10-31T14:51:03;18.80;99.90
3866;DHT22;1948;53.250;10.412;2022-10-31T14:53:53;18.50;99.90
3866;DHT22;1948;53.250;10.412;2022-10-31T14:56:31;18.30;99.90
3866;DHT22;1948;53.250;10.412;2022-10-31T14:59:03;18.00;99.90
3866;DHT22;1948;53.250;10.412;2022-10-31T15:01:36;17.70;99.90
3866;DHT22;1948;53.250;10.412;2022-10-31T15:07:13;17.40;99.90
3866;DHT22;1948;53.250;10.412;2022-10-31T15:10:02;17.30;99.90
3866;DHT22;1948;53.250;10.412;2022-10-31T15:12:35;17.20;99.90
3866;DHT22;1948;53.250;10.412;2022-10-31T15:15:25;17.00;99.90
3866;DHT22;1948;53.250;10.412;2022-10-31T15:17:57;16.90;99.90
3866;DHT22;1948;53.250;10.412;2022-10-31T15:20:29;16.80;99.90
3866;DHT22;1948;53.250;10.412;2022-10-31T15:23:20;16.80;99.90
3866;DHT22;1948;53.250;10.412;2022-10-31T15:25:50;16.60;99.90
3866;DHT22;1948;53.250;10.412;2022-10-31T15:28:27;16.60;99.90
3866;DHT22;1948;53.250;10.412;2022-10-31T15:31:02;16.60;99.90
3866;DHT22;1948;53.250;10.412;2022-10-31T15:33:31;16.50;99.90
3866;DHT22;1948;53.250;10.412;2022-10-31T15:36:22;16.40;99.90
3866;DHT22;1948;53.250;10.412;2022-10-31T15:38:56;16.40;99.90
3866;DHT22;1948;53.250;10.412;2022-10-31T15:43:55;16.20;99.90
3866;DHT22;1948;53.250;10.412;2022-10-31T15:46:28;16.10;99.90
3866;DHT22;1948;53.250;10.412;2022-10-31T15:48:59;16.00;99.90
3866;DHT22;1948;53.250;10.412;2022-10-31T15:51:28;15.90;99.90
3866;DHT22;1948;53.250;10.412;2022-10-31T15:53:59;15.80;99.90
3866;DHT22;1948;53.250;10.412;2022-10-31T15:56:31;15.70;99.90
3866;DHT22;1948;53.250;10.412;2022-10-31T15:59:00;15.60;99.90
3866;DHT22;1948;53.250;10.412;2022-10-31T16:01:32;15.50;99.90
3866;DHT22;1948;53.250;10.412;2022-10-31T16:06:39;15.40;99.90
3866;DHT22;1948;53.250;10.412;2022-10-31T16:09:22;15.40;99.90
3866;DHT22;1948;53.250;10.412;2022-10-31T16:11:50;15.40;99.90
3866;DHT22;1948;53.250;10.412;2022-10-31T16:14:22;15.30;99.90
3866;DHT22;1948;53.250;10.412;2022-10-31T16:16:54;15.30;99.90
3866;DHT22;1948;53.250;10.412;2022-10-31T16:19:31;15.20;99.90
3866;DHT22;1948;53.250;10.412;2022-10-31T16:22:13;15.10;99.90
3866;DHT22;1948;53.250;10.412;2022-10-31T16:24:49;15.10;99.90
3866;DHT22;1948;53.250;10.412;2022-10-31T16:27:21;15.00;99.90
3866;DHT22;1948;53.250;10.412;2022-10-31T16:29:53;15.00;99.90
3866;DHT22;1948;53.250;10.412;2022-10-31T16:35:21;14.90;99.90
3866;DHT22;1948;53.250;10.412;2022-10-31T16:37:52;14.80;99.90
3866;DHT22;1948;53.250;10.412;2022-10-31T16:40:19;14.80;99.90
3866;DHT22;1948;53.250;10.412;2022-10-31T16:42:47;14.70;99.90
3866;DHT22;1948;53.250;10.412;2022-10-31T16:45:22;14.70;99.90
3866;DHT22;1948;53.250;10.412;2022-10-31T16:47:51;14.60;99.90
3866;DHT22;1948;53.250;10.412;2022-10-31T16:50:27;14.70;99.90
3866;DHT22;1948;53.250;10.412;2022-10-31T16:52:58;14.70;99.90
3866;DHT22;1948;53.250;10.412;2022-10-31T16:55:54;14.70;99.90
3866;DHT22;1948;53.250;10.412;2022-10-31T16:58:28;14.80;99.90
3866;DHT22;1948;53.250;10.412;2022-10-31T17:01:00;14.80;99.90
3866;DHT22;1948;53.250;10.412;2022-10-31T17:03:28;14.80;99.90
3866;DHT22;1948;53.250;10.412;2022-10-31T17:05:56;14.90;99.90
3866;DHT22;1948;53.250;10.412;2022-10-31T17:08:26;14.80;99.90
3866;DHT22;1948;53.250;10.412;2022-10-31T17:10:56;14.80;99.90
3866;DHT22;1948;53.250;10.412;2022-10-31T17:13:28;14.60;99.90
3866;DHT22;1948;53.250;10.412;2022-10-31T17:15:58;14.60;99.90
3866;DHT22;1948;53.250;10.412;2022-10-31T17:18:27;14.60;99.90
3866;DHT22;1948;53.250;10.412;2022-10-31T17:20:59;14.70;99.90
3866;DHT22;1948;53.250;10.412;2022-10-31T17:23:27;14.70;99.90
3866;DHT22;1948;53.250;10.412;2022-10-31T17:25:59;14.60;99.90
3866;DHT22;1948;53.250;10.412;2022-10-31T17:28:29;14.60;99.90
3866;DHT22;1948;53.250;10.412;2022-10-31T17:30:59;14.50;99.90
3866;DHT22;1948;53.250;10.412;2022-10-31T17:33:49;14.50;99.90
3866;DHT22;1948;53.250;10.412;2022-10-31T17:36:27;14.50;99.90
3866;DHT22;1948;53.250;10.412;2022-10-31T17:38:58;14.50;99.90
3866;DHT22;1948;53.250;10.412;2022-10-31T17:41:25;14.40;99.90
3866;DHT22;1948;53.250;10.412;2022-10-31T17:43:56;14.40;99.90
3866;DHT22;1948;53.250;10.412;2022-10-31T17:46:24;14.40;99.90
3866;DHT22;1948;53.250;10.412;2022-10-31T17:48:51;14.50;99.90
3866;DHT22;1948;53.250;10.412;2022-10-31T17:51:18;14.40;99.90
3866;DHT22;1948;53.250;10.412;2022-10-31T17:53:47;14.30;99.90
3866;DHT22;1948;53.250;10.412;2022-10-31T17:56:14;14.30;99.90
3866;DHT22;1948;53.250;10.412;2022-10-31T17:58:46;14.30;99.90
3866;DHT22;1948;53.250;10.412;2022-10-31T18:01:14;14.30;99.90
3866;DHT22;1948;53.250;10.412;2022-10-31T18:03:43;14.30;99.90
3866;DHT22;1948;53.250;10.412;2022-10-31T18:06:11;14.30;99.90
3866;DHT22;1948;53.250;10.412;2022-10-31T18:08:43;14.20;99.90
3866;DHT22;1948;53.250;10.412;2022-10-31T18:11:13;14.10;99.90
3866;DHT22;1948;53.250;10.412;2022-10-31T18:13:42;14.10;99.90
3866;DHT22;1948;53.250;10.412;2022-10-31T18:16:11;14.00;99.90
3866;DHT22;1948;53.250;10.412;2022-10-31T18:18:40;14.00;99.90
3866;DHT22;1948;53.250;10.412;2022-10-31T18:21:09;14.00;99.90
3866;DHT22;1948;53.250;10.412;2022-10-31T18:23:39;13.90;99.90
3866;DHT22;1948;53.250;10.412;2022-10-31T18:26:06;13.90;99.90
3866;DHT22;1948;53.250;10.412;2022-10-31T18:28:33;14.00;99.90
3866;DHT22;1948;53.250;10.412;2022-10-31T18:31:02;13.90;99.90
3866;DHT22;1948;53.250;10.412;2022-10-31T18:33:30;13.90;99.90
3866;DHT22;1948;53.250;10.412;2022-10-31T18:36:04;13.90;99.90
3866;DHT22;1948;53.250;10.412;2022-10-31T18:38:35;13.80;99.90
3866;DHT22;1948;53.250;10.412;2022-10-31T18:41:03;13.90;99.90
3866;DHT22;1948;53.250;10.412;2022-10-31T18:43:31;13.90;99.90
3866;DHT22;1948;53.250;10.412;2022-10-31T18:46:04;14.00;99.90
3866;DHT22;1948;53.250;10.412;2022-10-31T18:48:35;14.00;99.90
3866;DHT22;1948;53.250;10.412;2022-10-31T18:51:04;13.90;99.90
3866;DHT22;1948;53.250;10.412;2022-10-31T18:53:34;13.90;99.90
3866;DHT22;1948;53.250;10.412;2022-10-31T18:56:08;14.00;99.90
3866;DHT22;1948;53.250;10.412;2022-10-31T18:58:36;14.00;99.90